Time;durP1;ratioP1;P1;durP2;ratioP2;P2;SDS_P1;SDS_P2;PMS_P1;PMS_P2;Temp;Humidity;BMP_temperature;BMP_pressure;BME280_temperature;BME280_humidity;BME280_pressure;Samples;Min_cycle;Max_cycle;Signal;HPM_P1;HPM_P2
2022/05/05 00:00:41;;;;;;;16.03;6.10;;;13.80;99.90;;;14.42;100.00;98312.63;5045304;28;20460;-87
2022/05/05 00:03:10;;;;;;;13.43;5.90;;;13.70;99.90;;;14.44;100.00;98315.84;5047474;28;20538;-88
2022/05/05 00:05:40;;;;;;;8.90;5.20;;;13.70;99.90;;;14.43;100.00;98310.81;5044298;28;20470;-87
2022/05/05 00:08:11;;;;;;;10.93;5.40;;;13.70;99.90;;;14.40;100.00;98309.41;5043438;28;20477;-87
2022/05/05 00:16:17;;;;;;;14.13;4.93;;;13.60;99.90;;;14.41;100.00;98308.34;5040529;28;20465;-88
2022/05/05 00:18:47;;;;;;;8.13;5.30;;;13.60;99.90;;;14.40;100.00;98304.13;5040535;28;20473;-87
2022/05/05 00:21:17;;;;;;;9.57;4.63;;;13.60;99.90;;;14.38;100.00;98303.50;5043387;28;20476;-87
2022/05/05 00:23:47;;;;;;;9.27;5.33;;;13.60;99.90;;;14.39;100.00;98293.81;5044847;28;20551;-87
2022/05/05 00:26:18;;;;;;;6.77;5.03;;;13.60;99.90;;;14.40;100.00;98298.06;5043992;28;20461;-87
2022/05/05 00:28:49;;;;;;;5.47;4.30;;;13.50;99.90;;;14.38;100.00;98293.00;5043183;28;20488;-87
2022/05/05 00:31:19;;;;;;;6.63;4.13;;;13.50;99.90;;;14.37;100.00;98293.22;5041554;28;20547;-86
2022/05/05 00:33:49;;;;;;;7.60;4.93;;;13.50;99.90;;;14.36;100.00;98294.22;5043374;28;20465;-87
2022/05/05 00:36:18;;;;;;;9.83;5.80;;;13.40;99.90;;;14.34;100.00;98294.41;5044073;28;20493;-87
2022/05/05 00:38:48;;;;;;;8.57;4.67;;;13.40;99.90;;;14.35;100.00;98296.03;5044638;28;20472;-87
2022/05/05 00:41:19;;;;;;;14.50;5.27;;;13.40;99.90;;;14.28;100.00;98300.47;5043940;28;20881;-87
2022/05/05 00:43:51;;;;;;;9.10;5.30;;;13.50;99.90;;;14.27;100.00;98296.19;5040675;28;20465;-87
2022/05/05 00:46:20;;;;;;;6.33;5.00;;;13.40;99.90;;;14.23;100.00;98300.25;5040459;28;20956;-88
2022/05/05 00:48:51;;;;;;;8.40;4.87;;;13.40;99.90;;;14.22;100.00;98303.91;5041343;28;20497;-87
2022/05/05 00:51:22;;;;;;;11.33;6.27;;;13.30;99.90;;;14.18;100.00;98297.44;5041804;28;20469;-87
2022/05/05 00:53:54;;;;;;;11.20;5.00;;;13.40;99.90;;;14.18;100.00;98300.06;5040885;28;21009;-86
2022/05/05 00:56:25;;;;;;;7.30;4.43;;;13.40;99.90;;;14.18;100.00;98288.72;5041136;28;20863;-87
2022/05/05 00:58:58;;;;;;;12.90;5.43;;;13.30;99.90;;;14.17;100.00;98302.88;5042657;28;20498;-87
2022/05/05 01:01:33;;;;;;;6.50;4.63;;;13.20;99.90;;;14.08;100.00;98297.03;5042004;28;20476;-88
2022/05/05 01:04:07;;;;;;;11.60;4.90;;;13.30;99.90;;;14.08;100.00;98291.78;5040768;28;20470;-87
2022/05/05 01:06:38;;;;;;;7.60;4.77;;;13.30;99.90;;;14.07;100.00;98292.78;5045012;28;20552;-87
2022/05/05 01:09:09;;;;;;;10.73;4.63;;;13.20;99.90;;;14.09;100.00;98291.56;5044717;28;20504;-87
2022/05/05 01:11:39;;;;;;;6.30;4.70;;;13.20;99.90;;;14.04;100.00;98293.19;5043173;28;20465;-88
2022/05/05 01:14:11;;;;;;;10.70;4.53;;;13.20;99.90;;;13.99;100.00;98287.72;5037982;28;20468;-86
2022/05/05 01:16:43;;;;;;;5.93;4.67;;;13.10;99.90;;;13.98;100.00;98286.13;5046040;28;20985;-87
2022/05/05 01:19:13;;;;;;;8.30;4.60;;;13.10;99.90;;;13.95;100.00;98283.91;5043977;28;20480;-87
2022/05/05 01:21:53;;;;;;;9.70;4.73;;;13.10;99.90;;;13.92;100.00;98289.53;5042313;28;20461;-87
2022/05/05 01:28:10;;;;;;;12.03;4.90;;;13.10;99.90;;;13.92;100.00;98292.16;5046116;28;20448;-87
2022/05/05 01:30:01;;;;;;;6.00;5.07;;;13.10;99.90;;;13.91;100.00;98294.00;5042821;28;20462;-87
2022/05/05 01:32:32;;;;;;;7.20;5.30;;;13.00;99.90;;;13.89;100.00;98296.00;5042174;28;20572;-87
2022/05/05 01:35:03;;;;;;;11.13;4.00;;;13.00;99.90;;;13.84;100.00;98301.09;5042465;28;20533;-87
2022/05/05 01:37:35;;;;;;;10.30;4.70;;;13.00;99.90;;;13.84;100.00;98295.81;5044020;28;20484;-87
2022/05/05 01:40:07;;;;;;;9.07;4.47;;;13.00;99.90;;;13.80;100.00;98305.13;5043338;28;20959;-87
2022/05/05 01:42:38;;;;;;;6.70;3.97;;;13.00;99.90;;;13.78;100.00;98298.44;5045734;28;20557;-87
2022/05/05 01:45:08;;;;;;;11.40;4.47;;;12.90;99.90;;;13.75;100.00;98301.44;5041221;28;20473;-87
2022/05/05 01:47:38;;;;;;;5.27;4.20;;;12.90;99.90;;;13.75;100.00;98299.63;5043036;28;20461;-87
2022/05/05 01:50:10;;;;;;;7.63;5.00;;;12.90;99.90;;;13.75;100.00;98304.09;5043997;28;20539;-87
2022/05/05 01:52:43;;;;;;;7.37;4.10;;;12.90;99.90;;;13.78;100.00;98311.59;5040788;28;20454;-86
2022/05/05 01:55:13;;;;;;;8.80;5.07;;;12.90;99.90;;;13.75;100.00;98311.97;5041760;28;20508;-87
2022/05/05 01:57:44;;;;;;;4.50;3.77;;;12.90;99.90;;;13.72;100.00;98313.19;5041881;28;20467;-88
2022/05/05 02:00:14;;;;;;;12.53;5.20;;;12.90;99.90;;;13.69;100.00;98313.59;5042032;28;20510;-87
2022/05/05 02:02:44;;;;;;;5.10;3.90;;;12.90;99.90;;;13.68;100.00;98322.47;5041609;28;20815;-87
2022/05/05 02:05:15;;;;;;;6.20;3.67;;;12.90;99.90;;;13.71;100.00;98326.53;5041351;28;20457;-87
2022/05/05 02:07:47;;;;;;;5.73;3.50;;;12.90;99.90;;;13.71;100.00;98318.66;5039620;28;20461;-87
2022/05/05 02:10:20;;;;;;;8.93;3.97;;;12.90;99.90;;;13.69;100.00;98325.91;5043227;28;20493;-87
2022/05/05 02:12:51;;;;;;;9.20;3.93;;;12.80;99.90;;;13.69;100.00;98324.09;5041083;28;20461;-88
2022/05/05 02:15:21;;;;;;;10.13;3.60;;;12.80;99.90;;;13.67;100.00;98327.94;5042630;28;20924;-87
2022/05/05 02:17:51;;;;;;;6.60;3.97;;;12.90;99.90;;;13.63;100.00;98331.97;5039632;28;20491;-86
2022/05/05 02:20:21;;;;;;;7.13;4.10;;;12.80;99.90;;;13.59;100.00;98332.38;5040543;28;21324;-87
2022/05/05 02:22:53;;;;;;;6.90;3.93;;;12.80;99.90;;;13.57;100.00;98329.13;5045174;28;20450;-86
2022/05/05 02:25:23;;;;;;;5.40;3.57;;;12.70;99.90;;;13.60;100.00;98328.75;5039532;28;20465;-87
2022/05/05 02:27:54;;;;;;;5.00;3.90;;;12.70;99.90;;;13.61;100.00;98340.88;5041546;28;20892;-86
2022/05/05 02:30:28;;;;;;;5.90;3.73;;;12.70;99.90;;;13.63;100.00;98329.34;5041808;28;20531;-86
2022/05/05 02:32:58;;;;;;;7.37;4.00;;;12.70;99.90;;;13.54;100.00;98333.97;5041981;28;20465;-87
2022/05/05 02:35:28;;;;;;;13.90;3.37;;;12.70;99.90;;;13.54;100.00;98337.41;5040225;28;20473;-87
2022/05/05 02:40:45;;;;;;;5.60;3.90;;;12.70;99.90;;;13.56;100.00;98347.72;5041091;28;20986;-87
2022/05/05 02:43:15;;;;;;;11.93;4.10;;;12.70;99.90;;;13.50;100.00;98346.69;5042166;28;20569;-87
2022/05/05 02:45:45;;;;;;;8.43;3.90;;;12.70;99.90;;;13.49;100.00;98346.91;5035811;28;20810;-86
2022/05/05 02:48:15;;;;;;;8.20;4.30;;;12.70;99.90;;;13.50;100.00;98349.31;5039825;28;20461;-85
2022/05/05 02:50:46;;;;;;;6.27;4.00;;;12.60;99.90;;;13.47;100.00;98347.09;5038509;28;20556;-86
2022/05/05 02:56:03;;;;;;;4.97;3.27;;;12.60;99.90;;;13.48;100.00;98356.59;5040104;28;20493;-87
2022/05/05 02:58:33;;;;;;;7.07;4.20;;;12.60;99.90;;;13.51;100.00;98353.56;5039241;28;20489;-88
2022/05/05 03:01:02;;;;;;;7.90;3.77;;;12.60;99.90;;;13.52;100.00;98357.00;5039552;28;20470;-88
2022/05/05 03:03:33;;;;;;;13.70;5.07;;;12.60;99.90;;;13.51;100.00;98344.88;5036338;28;20825;-87
2022/05/05 03:06:02;;;;;;;10.50;4.97;;;12.60;99.90;;;13.50;100.00;98343.28;5039506;28;20530;-87
2022/05/05 03:08:35;;;;;;;7.93;4.23;;;12.60;99.90;;;13.43;100.00;98351.13;5038638;28;20579;-87
2022/05/05 03:11:05;;;;;;;6.60;3.67;;;12.50;99.90;;;13.40;100.00;98346.25;5041260;28;20995;-87
2022/05/05 03:13:36;;;;;;;8.20;3.63;;;12.60;99.90;;;13.43;100.00;98340.59;5038785;28;20473;-87
2022/05/05 03:16:07;;;;;;;7.67;3.80;;;12.50;99.90;;;13.46;100.00;98332.34;5037511;28;20465;-87
2022/05/05 03:18:40;;;;;;;6.83;3.60;;;12.50;99.90;;;13.42;100.00;98336.38;5038042;28;20513;-88
2022/05/05 03:21:10;;;;;;;5.93;3.87;;;12.60;99.90;;;13.40;100.00;98338.38;5036665;28;20518;-86
2022/05/05 03:23:42;;;;;;;4.63;3.03;;;12.70;99.90;;;13.37;100.00;98338.78;5039062;28;20461;-86
2022/05/05 03:26:13;;;;;;;14.83;3.93;;;12.70;99.90;;;13.35;100.00;98340.00;5040539;28;20951;-86
2022/05/05 03:28:43;;;;;;;13.30;3.80;;;12.70;99.90;;;13.33;100.00;98337.53;5041046;28;20924;-87
2022/05/05 03:31:12;;;;;;;6.00;3.70;;;12.70;99.90;;;13.33;100.00;98337.53;5039847;28;20504;-87
2022/05/05 03:33:43;;;;;;;8.17;3.60;;;12.60;99.90;;;13.32;100.00;98338.56;5041362;28;20465;-86
2022/05/05 03:36:13;;;;;;;4.80;3.07;;;12.60;99.90;;;13.30;100.00;98335.31;5041268;28;20492;-87
2022/05/05 03:38:43;;;;;;;6.23;2.90;;;12.60;99.90;;;13.28;100.00;98334.72;5042733;28;20457;-86
2022/05/05 03:41:12;;;;;;;5.60;2.97;;;12.50;99.90;;;13.23;100.00;98331.03;5037409;28;20502;-88
2022/05/05 03:43:42;;;;;;;5.80;3.60;;;12.50;99.90;;;13.23;100.00;98341.53;5044001;28;20446;-87
2022/05/05 03:46:11;;;;;;;5.53;2.90;;;12.50;99.90;;;13.24;100.00;98349.25;5038893;28;20564;-87
2022/05/05 03:48:41;;;;;;;7.77;3.50;;;12.40;99.90;;;13.26;100.00;98347.22;5039910;28;20468;-86
2022/05/05 03:51:12;;;;;;;5.90;4.03;;;12.40;99.90;;;13.23;100.00;98342.34;5044061;28;20492;-87
2022/05/05 03:53:43;;;;;;;6.87;3.40;;;12.40;99.90;;;13.25;100.00;98355.31;5039972;28;21292;-87
2022/05/05 03:56:14;;;;;;;4.03;3.20;;;12.40;99.90;;;13.25;100.00;98352.69;5038786;28;20461;-87
2022/05/05 03:58:45;;;;;;;7.67;2.80;;;12.30;99.90;;;13.26;100.00;98355.09;5041818;28;20565;-86
2022/05/05 04:01:16;;;;;;;4.90;2.93;;;12.30;99.90;;;13.29;100.00;98362.59;5040902;28;20496;-87
2022/05/05 04:03:45;;;;;;;6.27;3.80;;;12.30;99.90;;;13.31;100.00;98363.22;5040729;28;20815;-87
2022/05/05 04:06:18;;;;;;;9.80;3.80;;;12.30;99.90;;;13.28;100.00;98360.97;5040003;28;20465;-87
2022/05/05 04:08:49;;;;;;;7.93;3.47;;;12.40;99.90;;;13.26;100.00;98368.22;5036804;28;20551;-87
2022/05/05 04:11:20;;;;;;;4.27;3.20;;;12.40;99.90;;;13.23;100.00;98373.06;5042982;28;20461;-87
2022/05/05 04:13:51;;;;;;;4.20;3.20;;;12.40;99.90;;;13.20;100.00;98374.28;5039549;28;20457;-87
2022/05/05 04:16:21;;;;;;;8.87;3.97;;;12.40;99.90;;;13.19;100.00;98369.22;5039691;28;20462;-87
2022/05/05 04:18:51;;;;;;;8.37;3.73;;;12.40;99.90;;;13.18;100.00;98376.28;5040205;28;20496;-87
2022/05/05 04:21:22;;;;;;;5.33;3.33;;;12.30;99.90;;;13.17;100.00;98379.91;5041496;28;20496;-86
2022/05/05 04:23:55;;;;;;;10.13;5.10;;;12.30;99.90;;;13.18;100.00;98386.78;5043323;28;20854;-87
2022/05/05 04:26:28;;;;;;;6.57;3.30;;;12.30;99.90;;;13.17;100.00;98382.53;5042744;28;20882;-87
2022/05/05 04:28:58;;;;;;;4.97;3.00;;;12.30;99.90;;;13.15;100.00;98392.44;5041423;28;20471;-86
2022/05/05 04:31:30;;;;;;;4.20;3.00;;;12.30;99.90;;;13.12;100.00;98398.06;5041478;28;20470;-81
2022/05/05 04:34:01;;;;;;;9.90;4.03;;;12.30;99.90;;;13.13;100.00;98401.50;5044278;28;20482;-77
2022/05/05 04:36:34;;;;;;;18.20;5.00;;;12.40;99.90;;;13.11;100.00;98409.59;5041373;28;20463;-78
2022/05/05 04:39:07;;;;;;;5.03;3.27;;;12.30;99.90;;;13.10;100.00;98413.22;5041148;28;20832;-78
2022/05/05 04:41:36;;;;;;;7.63;3.37;;;12.30;99.90;;;13.09;100.00;98420.25;5043313;28;20486;-78
2022/05/05 04:44:05;;;;;;;6.33;3.20;;;12.20;99.90;;;13.05;100.00;98419.00;5044109;28;20449;-78
2022/05/05 04:46:36;;;;;;;5.50;3.13;;;12.30;99.90;;;13.06;100.00;98419.81;5042065;28;20453;-78
2022/05/05 04:49:08;;;;;;;4.07;3.10;;;12.30;99.90;;;13.07;100.00;98421.44;5045480;28;20450;-78
2022/05/05 04:51:38;;;;;;;11.07;3.77;;;12.20;99.90;;;13.08;100.00;98425.69;5043942;28;20477;-78
2022/05/05 04:54:10;;;;;;;6.37;3.57;;;12.20;99.90;;;13.06;100.00;98435.56;5043765;28;20452;-78
2022/05/05 04:56:41;;;;;;;7.50;3.23;;;12.20;99.90;;;13.03;100.00;98435.94;5044448;28;20958;-79
2022/05/05 04:59:11;;;;;;;8.00;3.30;;;12.20;99.90;;;13.03;100.00;98442.03;5046181;28;20441;-78
2022/05/05 05:01:40;;;;;;;7.27;3.03;;;12.20;99.90;;;13.01;100.00;98443.22;5043013;28;20474;-78
2022/05/05 05:04:14;;;;;;;5.80;3.27;;;12.20;99.90;;;13.02;100.00;98450.88;5041938;28;20481;-78
2022/05/05 05:06:45;;;;;;;7.63;3.13;;;12.20;99.90;;;13.02;100.00;98452.69;5038667;28;20541;-78
2022/05/05 05:09:17;;;;;;;15.20;3.50;;;12.20;99.90;;;13.03;100.00;98457.78;5041782;28;20468;-88
2022/05/05 05:11:47;;;;;;;10.07;4.70;;;12.20;99.90;;;13.01;100.00;98458.97;5038581;28;20956;-78
2022/05/05 05:14:18;;;;;;;8.43;3.80;;;12.20;99.90;;;13.01;100.00;98457.16;5042986;28;20488;-77
2022/05/05 05:16:47;;;;;;;9.43;3.47;;;12.30;99.90;;;13.02;100.00;98450.06;5044911;28;20857;-78
2022/05/05 05:19:17;;;;;;;9.93;4.87;;;12.20;99.90;;;13.01;100.00;98465.03;5043261;28;20457;-78
2022/05/05 05:21:48;;;;;;;11.27;3.80;;;12.30;99.90;;;12.99;100.00;98456.53;5043810;28;20487;-78
2022/05/05 05:24:19;;;;;;;6.73;3.97;;;12.10;99.90;;;12.92;100.00;98457.47;5042723;28;20495;-78
2022/05/05 05:26:49;;;;;;;7.97;4.10;;;12.00;99.90;;;12.91;100.00;98466.38;5044422;28;20508;-78
2022/05/05 05:29:19;;;;;;;7.93;3.80;;;12.10;99.90;;;12.91;100.00;98466.38;5043644;28;20488;-78
2022/05/05 05:31:48;;;;;;;7.17;3.63;;;12.10;99.90;;;12.94;100.00;98463.38;5042033;28;20915;-78
2022/05/05 05:34:20;;;;;;;5.77;3.87;;;12.10;99.90;;;12.96;100.00;98461.34;5041734;28;20552;-78
2022/05/05 05:36:51;;;;;;;8.00;4.10;;;12.10;99.90;;;13.00;100.00;98465.22;5044218;28;20919;-78
2022/05/05 05:39:23;;;;;;;7.17;3.50;;;12.10;99.90;;;12.97;100.00;98462.97;5044417;28;20485;-78
2022/05/05 05:41:53;;;;;;;5.73;3.90;;;12.20;99.90;;;12.97;100.00;98468.22;5045478;28;20512;-77
2022/05/05 05:44:22;;;;;;;7.23;4.00;;;12.20;99.90;;;12.92;100.00;98465.34;5040438;28;20553;-78
2022/05/05 05:46:52;;;;;;;12.47;4.17;;;12.10;99.90;;;12.84;100.00;98473.41;5042027;28;20478;-78
2022/05/05 05:49:21;;;;;;;8.97;4.07;;;12.20;99.90;;;12.73;100.00;98471.28;5038791;28;20474;-78
2022/05/05 05:51:50;;;;;;;13.40;4.40;;;12.10;99.90;;;12.74;100.00;98468.44;5043500;28;20539;-78
2022/05/05 05:54:22;;;;;;;19.53;4.57;;;12.00;99.90;;;12.75;100.00;98469.25;5038803;28;20472;-78
2022/05/05 05:56:52;;;;;;;13.00;4.80;;;12.10;99.90;;;12.74;100.00;98472.91;5040286;28;20454;-78
2022/05/05 05:59:22;;;;;;;7.60;4.40;;;12.10;99.90;;;12.71;100.00;98474.09;5039928;28;20462;-78
2022/05/05 06:04:42;;;;;;;7.13;4.50;;;12.00;99.90;;;12.69;100.00;98483.97;5041406;28;20465;-78
2022/05/05 06:07:12;;;;;;;12.40;4.97;;;12.10;99.90;;;12.51;100.00;98473.94;5039136;28;20524;-78
2022/05/05 06:09:46;;;;;;;13.83;4.90;;;11.90;99.90;;;12.56;100.00;98476.78;5039075;28;21001;-79
2022/05/05 06:12:22;;;;;;;6.17;3.97;;;11.90;99.90;;;12.59;100.00;98480.84;4989875;28;20486;-78
2022/05/05 06:14:53;;;;;;;13.30;4.60;;;11.80;99.90;;;12.61;100.00;98486.72;5018555;28;20558;-78
2022/05/05 06:17:23;;;;;;;14.50;5.30;;;12.00;99.90;;;12.50;100.00;98495.09;5016940;28;20458;-78
2022/05/05 06:19:56;;;;;;;9.10;4.97;;;11.90;99.90;;;12.51;100.00;98497.53;5019643;28;20463;-89
2022/05/05 06:22:26;;;;;;;16.03;8.80;;;11.90;99.90;;;12.52;100.00;98500.97;5018121;28;20533;-79
2022/05/05 06:25:01;;;;;;;12.03;4.83;;;11.90;99.90;;;12.46;100.00;98497.28;5019305;28;20473;-78
2022/05/05 06:27:30;;;;;;;9.00;4.87;;;11.90;99.90;;;12.50;100.00;98492.47;5018379;28;20963;-78
2022/05/05 06:30:01;;;;;;;8.63;4.33;;;11.80;99.90;;;12.50;100.00;98510.81;5018305;28;20505;-78
2022/05/05 06:32:31;;;;;;;14.43;5.20;;;11.90;99.90;;;12.51;100.00;98510.66;5017444;28;21672;-78
2022/05/05 06:35:01;;;;;;;14.47;4.30;;;11.80;99.90;;;12.56;100.00;98502.22;5017691;28;21097;-78
2022/05/05 06:37:31;;;;;;;10.70;5.13;;;11.90;99.90;;;12.59;100.00;98504.47;5018267;28;20501;-78
2022/05/05 06:40:03;;;;;;;8.20;4.70;;;11.80;99.90;;;12.63;100.00;98507.53;5016833;28;20479;-78
2022/05/05 06:42:33;;;;;;;14.43;5.43;;;11.90;99.90;;;12.60;100.00;98508.69;5017879;28;20477;-78
2022/05/05 06:45:02;;;;;;;17.00;5.40;;;12.00;99.90;;;12.60;100.00;98503.44;5020332;28;20470;-78
2022/05/05 06:47:33;;;;;;;8.17;5.27;;;12.00;99.90;;;12.63;100.00;98504.91;5017586;28;20459;-78
2022/05/05 06:50:03;;;;;;;14.40;5.50;;;11.90;99.90;;;12.63;100.00;98513.59;5024218;28;20568;-78
2022/05/05 06:52:33;;;;;;;9.37;6.03;;;11.80;99.90;;;12.66;100.00;98518.47;5015628;28;20470;-78
2022/05/05 06:55:13;;;;;;;7.57;4.77;;;11.90;99.90;;;12.69;100.00;98527.75;5017354;28;20462;-78
2022/05/05 06:57:44;;;;;;;6.87;5.20;;;11.90;99.90;;;12.70;100.00;98521.53;5014952;28;20458;-78
2022/05/05 07:00:17;;;;;;;11.07;4.70;;;11.80;99.90;;;12.71;100.00;98520.50;5016065;28;20497;-78
2022/05/05 07:02:45;;;;;;;8.77;5.20;;;11.90;99.90;;;12.74;100.00;98525.41;5016972;28;20524;-78
2022/05/05 07:05:26;;;;;;;10.33;5.30;;;11.90;99.90;;;12.73;100.00;98518.53;5017247;28;20467;-78
2022/05/05 07:07:56;;;;;;;9.77;5.00;;;12.00;99.90;;;12.73;100.00;98531.63;5018812;28;20524;-78
2022/05/05 07:13:16;;;;;;;9.50;5.07;;;12.00;99.90;;;12.74;100.00;98533.28;5014505;28;20550;-78
2022/05/05 07:15:46;;;;;;;9.90;5.10;;;12.00;99.90;;;12.76;100.00;98539.13;5018077;28;21031;-78
2022/05/05 07:18:16;;;;;;;14.07;5.30;;;12.00;99.90;;;12.79;100.00;98538.75;5015695;28;20454;-78
2022/05/05 07:20:46;;;;;;;11.93;5.67;;;11.90;99.90;;;12.82;100.00;98538.38;5017357;28;20478;-78
2022/05/05 07:23:15;;;;;;;15.43;6.07;;;11.90;99.90;;;12.83;100.00;98540.00;5018862;28;20458;-78
2022/05/05 07:25:47;;;;;;;6.30;4.80;;;12.00;99.90;;;12.83;100.00;98540.00;5015704;28;20621;-78
2022/05/05 07:28:16;;;;;;;15.97;4.77;;;12.00;99.90;;;12.79;100.00;98539.56;5013726;28;20527;-78
2022/05/05 07:30:46;;;;;;;11.83;5.73;;;12.10;99.90;;;12.79;100.00;98538.75;5017536;28;20813;-78
2022/05/05 07:33:15;;;;;;;10.73;4.57;;;12.00;99.90;;;12.79;100.00;98539.56;5015676;28;20462;-78
2022/05/05 07:35:47;;;;;;;11.23;5.40;;;12.00;99.90;;;12.83;100.00;98540.00;5017975;28;20466;-78
2022/05/05 07:38:17;;;;;;;10.60;5.10;;;12.10;99.90;;;12.83;100.00;98540.00;5016794;28;20469;-78
2022/05/05 07:40:51;;;;;;;8.47;5.20;;;12.20;99.90;;;12.86;100.00;98542.25;5016223;28;21239;-79
2022/05/05 07:43:21;;;;;;;15.30;5.60;;;12.10;99.90;;;12.86;100.00;98545.69;5013736;28;20493;-78
2022/05/05 07:45:52;;;;;;;8.57;5.47;;;12.20;99.90;;;12.87;100.00;98547.31;5016940;28;20458;-78
2022/05/05 07:48:21;;;;;;;57.17;26.87;;;12.20;99.90;;;12.90;100.00;98543.50;5022145;28;20818;-78
2022/05/05 07:50:50;;;;;;;10.80;6.50;;;12.20;99.90;;;12.92;100.00;98546.72;5016415;28;20481;-78
2022/05/05 07:53:20;;;;;;;13.67;7.20;;;12.20;99.90;;;12.95;100.00;98548.97;5016594;28;20462;-78
2022/05/05 07:55:50;;;;;;;11.13;5.87;;;12.20;99.90;;;12.96;100.00;98553.22;5016189;28;20497;-78
2022/05/05 07:58:21;;;;;;;12.53;5.73;;;12.30;99.90;;;12.99;100.00;98555.47;5019595;28;20469;-79
2022/05/05 08:00:51;;;;;;;11.30;5.77;;;12.20;99.90;;;13.03;100.00;98556.72;5016581;28;20470;-78
2022/05/05 08:03:22;;;;;;;8.80;5.77;;;12.30;99.90;;;13.03;100.00;98557.53;5021994;28;21415;-79
2022/05/05 08:05:52;;;;;;;10.60;5.83;;;12.20;99.90;;;13.04;100.00;98574.13;5020770;28;20469;-78
2022/05/05 08:08:22;;;;;;;11.40;5.10;;;12.20;99.90;;;13.03;100.00;98567.22;5018236;28;20934;-77
2022/05/05 08:10:53;;;;;;;8.43;5.93;;;12.30;99.90;;;13.03;100.00;98568.03;5021747;28;20551;-76
2022/05/05 08:13:22;;;;;;;8.30;5.23;;;12.30;99.90;;;13.07;100.00;98576.34;5019409;28;20473;-77
2022/05/05 08:15:53;;;;;;;6.37;4.90;;;12.30;99.90;;;13.02;100.00;98570.84;5019340;28;20465;-77
2022/05/05 08:18:24;;;;;;;8.30;5.20;;;12.40;99.90;;;13.02;100.00;98568.22;5020800;28;20463;-76
2022/05/05 08:20:54;;;;;;;13.27;5.63;;;12.40;99.90;;;12.98;100.00;98578.28;5022918;28;20462;-83
2022/05/05 08:23:25;;;;;;;12.53;6.53;;;12.40;99.90;;;12.97;100.00;98576.69;5020480;28;20508;-76
2022/05/05 08:28:52;;;;;;;13.87;6.07;;;12.40;99.90;;;13.10;100.00;98579.44;5008957;28;20479;-77
2022/05/05 08:31:23;;;;;;;10.07;5.30;;;12.30;99.90;;;13.16;100.00;98583.13;5019028;28;20502;-76
2022/05/05 08:33:53;;;;;;;11.23;5.57;;;12.40;99.90;;;13.23;100.00;98589.22;5017705;28;21025;-77
2022/05/05 08:36:22;;;;;;;8.43;5.53;;;12.40;99.90;;;13.27;100.00;98585.22;5022844;28;20521;-77
2022/05/05 08:38:53;;;;;;;8.57;5.30;;;12.40;99.90;;;13.28;100.00;98589.47;5018868;28;20489;-76
2022/05/05 08:41:25;;;;;;;15.97;6.10;;;12.50;99.90;;;13.30;100.00;98590.09;5019232;28;21050;-77
2022/05/05 08:43:56;;;;;;;17.27;6.40;;;12.50;99.90;;;13.39;100.00;98591.59;5017764;28;20968;-76
2022/05/05 08:46:35;;;;;;;10.53;6.30;;;12.60;99.90;;;13.40;100.00;98601.06;5018125;28;20462;-84
2022/05/05 08:49:06;;;;;;;16.43;5.97;;;12.60;99.90;;;13.46;100.00;98602.97;5016369;28;20473;-77
2022/05/05 08:51:42;;;;;;;9.47;6.20;;;12.70;99.90;;;13.50;100.00;98606.81;5022573;28;20486;-77
2022/05/05 08:54:16;;;;;;;11.33;5.53;;;12.70;99.90;;;13.61;100.00;98613.34;5018126;28;20557;-76
2022/05/05 08:56:48;;;;;;;12.00;5.80;;;12.80;99.90;;;13.64;100.00;98612.97;5021498;28;20493;-76
2022/05/05 08:59:19;;;;;;;12.70;5.50;;;12.80;99.90;;;13.74;100.00;98615.28;5020131;28;20466;-76
2022/05/05 09:01:51;;;;;;;10.00;6.03;;;12.90;99.90;;;13.81;100.00;98616.13;5024794;28;21026;-76
2022/05/05 09:04:25;;;;;;;12.07;5.50;;;13.10;99.90;;;13.79;100.00;98615.50;5026212;28;20537;-76
2022/05/05 09:06:55;;;;;;;16.10;5.03;;;13.20;99.90;;;13.85;100.00;98614.75;5020121;28;20498;-77
2022/05/05 09:09:27;;;;;;;10.83;5.57;;;13.10;99.90;;;13.90;100.00;98617.59;5020562;28;20512;-76
2022/05/05 09:12:14;;;;;;;11.37;5.80;;;13.20;99.90;;;13.99;100.00;98613.78;5018970;28;21051;-76
2022/05/05 09:14:46;;;;;;;11.57;5.80;;;13.20;99.90;;;14.03;100.00;98612.38;5020062;28;20463;-76
2022/05/05 09:17:20;;;;;;;12.93;6.40;;;13.20;99.90;;;14.12;100.00;98611.22;5020400;28;20446;-76
2022/05/05 09:19:50;;;;;;;11.63;5.90;;;13.40;99.90;;;14.17;100.00;98619.34;5019777;28;20457;-76
2022/05/05 09:22:22;;;;;;;17.17;6.10;;;13.40;99.90;;;14.24;100.00;98609.66;5021269;28;20457;-76
2022/05/05 09:24:56;;;;;;;11.20;5.53;;;13.40;99.90;;;14.31;100.00;98609.69;5021756;28;20492;-76
2022/05/05 09:27:29;;;;;;;13.17;6.33;;;13.50;99.90;;;14.35;100.00;98611.75;5021139;28;20437;-76
2022/05/05 09:30:32;;;;;;;19.50;7.30;;;13.50;99.90;;;14.47;100.00;98618.06;5020229;28;20455;-76
2022/05/05 09:33:02;;;;;;;13.50;6.40;;;13.60;99.90;;;14.55;100.00;98617.91;5021221;28;20517;-77
2022/05/05 09:35:31;;;;;;;16.07;7.07;;;13.70;99.90;;;14.61;100.00;98621.56;5020910;28;21030;-76
2022/05/05 09:37:59;;;;;;;12.00;6.27;;;13.90;99.90;;;14.67;100.00;98623.41;5020562;28;20574;-76
2022/05/05 09:40:30;;;;;;;7.73;5.77;;;14.00;99.90;;;14.72;100.00;98617.53;5017841;28;20482;-76
2022/05/05 09:43:01;;;;;;;11.17;6.23;;;14.10;99.90;;;14.67;100.00;98623.41;5018468;28;20787;-76
2022/05/05 09:45:32;;;;;;;12.70;6.83;;;14.20;99.90;;;14.63;100.00;98618.72;5025823;28;20469;-76
2022/05/05 09:48:04;;;;;;;15.30;7.30;;;14.20;99.90;;;14.67;100.00;98619.97;5026414;28;20489;-76
2022/05/05 09:50:36;;;;;;;12.80;6.50;;;14.10;99.90;;;14.70;100.00;98622.19;5025114;28;20454;-76
2022/05/05 09:58:43;;;;;;;12.93;7.20;;;14.20;99.90;;;14.74;100.00;98633.94;5020403;28;20984;-76
2022/05/05 10:01:24;;;;;;;9.53;6.50;;;14.30;99.90;;;14.75;100.00;98622.41;5020156;28;20447;-76
2022/05/05 10:04:03;;;;;;;13.20;6.80;;;14.30;99.90;;;14.84;100.00;98629.94;5021506;28;21004;-77
2022/05/05 10:06:36;;;;;;;12.43;6.33;;;14.20;99.90;;;14.92;100.00;98627.13;5024908;28;20442;-76
2022/05/05 10:09:08;;;;;;;13.63;6.53;;;14.30;99.90;;;15.06;100.00;98625.31;5025808;28;20972;-76
2022/05/05 10:11:40;;;;;;;10.60;5.80;;;14.40;99.90;;;15.16;100.00;98628.34;5024957;28;20459;-76
2022/05/05 10:14:16;;;;;;;11.70;6.70;;;14.60;99.90;;;15.19;100.00;98635.84;5026596;28;20482;-76
2022/05/05 10:16:45;;;;;;;12.10;7.20;;;14.70;99.90;;;15.22;100.00;98634.63;5025520;28;20471;-77
2022/05/05 10:19:15;;;;;;;18.73;7.67;;;14.70;99.90;;;15.22;100.00;98635.44;5020138;28;20496;-76
2022/05/05 10:22:03;;;;;;;12.73;6.10;;;14.80;99.90;;;15.29;100.00;98627.53;5018407;28;20443;-76
2022/05/05 10:24:42;;;;;;;14.27;6.67;;;14.80;99.90;;;15.34;100.00;98625.91;5019478;28;20445;-76
2022/05/05 10:27:13;;;;;;;16.53;7.97;;;14.80;99.90;;;15.34;100.00;98628.53;5022176;28;21038;-76
2022/05/05 10:29:46;;;;;;;14.17;7.13;;;14.80;99.90;;;15.39;100.00;98620.03;5017635;28;20481;-76
2022/05/05 10:32:20;;;;;;;17.73;8.60;;;14.80;99.90;;;15.42;100.00;98628.34;5019298;28;20473;-76
2022/05/05 10:34:55;;;;;;;15.53;7.30;;;14.80;99.90;;;15.48;100.00;98618.84;5019210;28;20504;-76
2022/05/05 10:37:36;;;;;;;11.13;6.63;;;14.80;99.90;;;15.54;100.00;98620.69;5019595;28;20439;-76
2022/05/05 10:40:08;;;;;;;12.80;7.40;;;14.80;99.90;;;15.59;100.00;98619.03;5020042;28;20533;-76
2022/05/05 10:42:40;;;;;;;15.63;7.70;;;14.80;99.90;;;15.66;100.00;98624.28;5018358;28;20889;-76
2022/05/05 10:45:31;;;;;;;15.60;7.07;;;14.90;99.90;;;15.69;100.00;98613.34;5018654;28;20458;-76
2022/05/05 10:48:12;;;;;;;16.00;7.30;;;14.90;99.90;;;15.76;100.00;98616.00;5020746;28;20449;-76
2022/05/05 10:50:50;;;;;;;16.40;7.33;;;15.00;99.90;;;15.77;97.38;98617.59;5020704;28;20466;-76
2022/05/05 10:53:32;;;;;;;17.33;6.40;;;15.20;99.90;;;15.82;99.04;98617.78;5019829;28;20485;-76
2022/05/05 10:56:05;;;;;;;10.90;6.33;;;15.30;99.90;;;15.87;99.37;98620.59;5018940;28;20478;-77